sensor_id;sensor_type;location;lat;lon;timestamp;P1;durP1;ratioP1;P2;durP2;ratioP2
19776;SDS011;10047;42.490;26.012;2024-02-23T00:01:04;36.85;;;25.42;;
19776;SDS011;10047;42.490;26.012;2024-02-23T00:03:30;37.10;;;26.08;;
19776;SDS011;10047;42.490;26.012;2024-02-23T00:05:55;37.30;;;25.85;;
19776;SDS011;10047;42.490;26.012;2024-02-23T00:08:21;36.40;;;25.67;;
19776;SDS011;10047;42.490;26.012;2024-02-23T00:10:46;33.35;;;24.88;;
19776;SDS011;10047;42.490;26.012;2024-02-23T00:13:12;32.75;;;23.65;;
19776;SDS011;10047;42.490;26.012;2024-02-23T00:15:37;37.42;;;25.38;;
19776;SDS011;10047;42.490;26.012;2024-02-23T00:18:03;34.67;;;24.33;;
19776;SDS011;10047;42.490;26.012;2024-02-23T00:20:29;34.03;;;24.27;;
19776;SDS011;10047;42.490;26.012;2024-02-23T00:22:55;34.45;;;24.67;;
19776;SDS011;10047;42.490;26.012;2024-02-23T00:25:20;36.17;;;24.73;;
19776;SDS011;10047;42.490;26.012;2024-02-23T00:27:45;34.58;;;24.60;;
19776;SDS011;10047;42.490;26.012;2024-02-23T00:30:12;33.78;;;25.13;;
19776;SDS011;10047;42.490;26.012;2024-02-23T00:32:38;34.88;;;25.00;;
19776;SDS011;10047;42.490;26.012;2024-02-23T00:35:04;38.65;;;25.55;;
19776;SDS011;10047;42.490;26.012;2024-02-23T00:37:29;35.35;;;24.15;;
19776;SDS011;10047;42.490;26.012;2024-02-23T00:40:00;33.92;;;24.52;;
19776;SDS011;10047;42.490;26.012;2024-02-23T00:44:57;35.55;;;23.60;;
19776;SDS011;10047;42.490;26.012;2024-02-23T00:47:23;33.63;;;23.88;;
19776;SDS011;10047;42.490;26.012;2024-02-23T00:49:48;33.65;;;24.05;;
19776;SDS011;10047;42.490;26.012;2024-02-23T00:52:14;37.78;;;24.27;;
19776;SDS011;10047;42.490;26.012;2024-02-23T00:54:39;36.17;;;24.90;;
19776;SDS011;10047;42.490;26.012;2024-02-23T00:57:05;33.08;;;23.85;;
19776;SDS011;10047;42.490;26.012;2024-02-23T00:59:30;34.42;;;25.02;;
19776;SDS011;10047;42.490;26.012;2024-02-23T01:01:56;33.13;;;24.40;;
19776;SDS011;10047;42.490;26.012;2024-02-23T01:04:21;34.35;;;24.13;;
19776;SDS011;10047;42.490;26.012;2024-02-23T01:06:47;35.67;;;24.95;;
19776;SDS011;10047;42.490;26.012;2024-02-23T01:09:12;36.85;;;25.55;;
19776;SDS011;10047;42.490;26.012;2024-02-23T01:11:38;35.90;;;25.42;;
19776;SDS011;10047;42.490;26.012;2024-02-23T01:14:03;36.72;;;24.52;;
19776;SDS011;10047;42.490;26.012;2024-02-23T01:16:30;40.92;;;25.48;;
19776;SDS011;10047;42.490;26.012;2024-02-23T01:18:57;35.33;;;25.33;;
19776;SDS011;10047;42.490;26.012;2024-02-23T01:21:23;35.45;;;24.60;;
19776;SDS011;10047;42.490;26.012;2024-02-23T01:23:48;36.28;;;24.73;;
19776;SDS011;10047;42.490;26.012;2024-02-23T01:26:13;36.50;;;26.08;;
19776;SDS011;10047;42.490;26.012;2024-02-23T01:28:39;37.60;;;26.08;;
19776;SDS011;10047;42.490;26.012;2024-02-23T01:31:04;36.00;;;24.17;;
19776;SDS011;10047;42.490;26.012;2024-02-23T01:33:35;36.92;;;25.40;;
19776;SDS011;10047;42.490;26.012;2024-02-23T01:36:01;34.90;;;24.38;;
19776;SDS011;10047;42.490;26.012;2024-02-23T01:38:27;36.08;;;25.35;;
19776;SDS011;10047;42.490;26.012;2024-02-23T01:40:56;37.05;;;25.55;;
19776;SDS011;10047;42.490;26.012;2024-02-23T01:43:22;39.47;;;27.10;;
19776;SDS011;10047;42.490;26.012;2024-02-23T01:45:47;37.88;;;26.40;;
19776;SDS011;10047;42.490;26.012;2024-02-23T01:48:13;36.88;;;25.73;;
19776;SDS011;10047;42.490;26.012;2024-02-23T01:50:38;36.97;;;25.75;;
19776;SDS011;10047;42.490;26.012;2024-02-23T01:53:05;37.03;;;26.35;;
19776;SDS011;10047;42.490;26.012;2024-02-23T01:55:30;39.70;;;26.88;;
19776;SDS011;10047;42.490;26.012;2024-02-23T01:57:57;39.30;;;26.90;;
19776;SDS011;10047;42.490;26.012;2024-02-23T02:00:23;39.08;;;26.95;;
19776;SDS011;10047;42.490;26.012;2024-02-23T02:02:49;37.95;;;26.58;;
19776;SDS011;10047;42.490;26.012;2024-02-23T02:05:14;39.75;;;27.42;;
19776;SDS011;10047;42.490;26.012;2024-02-23T02:07:40;36.72;;;26.13;;
19776;SDS011;10047;42.490;26.012;2024-02-23T02:10:09;39.90;;;27.63;;
19776;SDS011;10047;42.490;26.012;2024-02-23T02:12:35;39.55;;;26.75;;
19776;SDS011;10047;42.490;26.012;2024-02-23T02:15:01;38.80;;;27.60;;
19776;SDS011;10047;42.490;26.012;2024-02-23T02:17:29;38.25;;;26.52;;
19776;SDS011;10047;42.490;26.012;2024-02-23T02:19:55;38.13;;;26.83;;
19776;SDS011;10047;42.490;26.012;2024-02-23T02:22:24;37.53;;;26.98;;
19776;SDS011;10047;42.490;26.012;2024-02-23T02:24:49;37.10;;;26.73;;
19776;SDS011;10047;42.490;26.012;2024-02-23T02:27:14;39.50;;;27.30;;
19776;SDS011;10047;42.490;26.012;2024-02-23T02:29:40;37.33;;;26.60;;
19776;SDS011;10047;42.490;26.012;2024-02-23T02:32:06;37.08;;;26.50;;
19776;SDS011;10047;42.490;26.012;2024-02-23T02:34:32;37.80;;;26.67;;
19776;SDS011;10047;42.490;26.012;2024-02-23T02:36:57;37.92;;;26.30;;
19776;SDS011;10047;42.490;26.012;2024-02-23T02:39:23;38.03;;;26.88;;
19776;SDS011;10047;42.490;26.012;2024-02-23T02:41:48;37.08;;;26.50;;
19776;SDS011;10047;42.490;26.012;2024-02-23T02:44:14;39.00;;;27.08;;
19776;SDS011;10047;42.490;26.012;2024-02-23T02:46:40;36.42;;;24.85;;
19776;SDS011;10047;42.490;26.012;2024-02-23T02:49:06;42.50;;;28.77;;
19776;SDS011;10047;42.490;26.012;2024-02-23T02:51:31;40.42;;;27.50;;
19776;SDS011;10047;42.490;26.012;2024-02-23T02:53:56;40.80;;;28.27;;
19776;SDS011;10047;42.490;26.012;2024-02-23T02:56:22;39.47;;;27.17;;
19776;SDS011;10047;42.490;26.012;2024-02-23T02:58:47;39.47;;;27.85;;
19776;SDS011;10047;42.490;26.012;2024-02-23T03:01:13;39.08;;;27.67;;
19776;SDS011;10047;42.490;26.012;2024-02-23T03:03:38;40.67;;;26.98;;
19776;SDS011;10047;42.490;26.012;2024-02-23T03:06:04;41.55;;;27.85;;
19776;SDS011;10047;42.490;26.012;2024-02-23T03:08:30;38.13;;;27.25;;
19776;SDS011;10047;42.490;26.012;2024-02-23T03:10:56;40.47;;;27.75;;
19776;SDS011;10047;42.490;26.012;2024-02-23T03:13:22;41.58;;;27.30;;
19776;SDS011;10047;42.490;26.012;2024-02-23T03:15:47;39.60;;;28.15;;
19776;SDS011;10047;42.490;26.012;2024-02-23T03:18:13;38.22;;;27.27;;
19776;SDS011;10047;42.490;26.012;2024-02-23T03:20:40;41.05;;;27.17;;
19776;SDS011;10047;42.490;26.012;2024-02-23T03:23:06;40.03;;;27.17;;
19776;SDS011;10047;42.490;26.012;2024-02-23T03:25:39;42.78;;;28.73;;
19776;SDS011;10047;42.490;26.012;2024-02-23T03:28:04;42.95;;;28.25;;
19776;SDS011;10047;42.490;26.012;2024-02-23T03:30:30;41.42;;;28.83;;
19776;SDS011;10047;42.490;26.012;2024-02-23T03:32:55;44.40;;;29.88;;
19776;SDS011;10047;42.490;26.012;2024-02-23T03:35:20;44.60;;;30.55;;
19776;SDS011;10047;42.490;26.012;2024-02-23T03:37:46;44.70;;;29.25;;
19776;SDS011;10047;42.490;26.012;2024-02-23T03:40:11;43.40;;;29.67;;
19776;SDS011;10047;42.490;26.012;2024-02-23T03:42:42;44.47;;;29.17;;
19776;SDS011;10047;42.490;26.012;2024-02-23T03:45:08;45.30;;;29.60;;
19776;SDS011;10047;42.490;26.012;2024-02-23T03:47:33;47.95;;;28.92;;
19776;SDS011;10047;42.490;26.012;2024-02-23T03:49:59;48.70;;;30.83;;
19776;SDS011;10047;42.490;26.012;2024-02-23T03:52:24;50.92;;;30.02;;
19776;SDS011;10047;42.490;26.012;2024-02-23T03:54:50;50.95;;;31.08;;
19776;SDS011;10047;42.490;26.012;2024-02-23T03:57:16;54.17;;;32.03;;
19776;SDS011;10047;42.490;26.012;2024-02-23T03:59:52;51.38;;;31.90;;
19776;SDS011;10047;42.490;26.012;2024-02-23T04:02:18;54.33;;;32.55;;
19776;SDS011;10047;42.490;26.012;2024-02-23T04:04:44;57.72;;;31.95;;
19776;SDS011;10047;42.490;26.012;2024-02-23T04:07:10;51.03;;;31.40;;
19776;SDS011;10047;42.490;26.012;2024-02-23T04:09:35;49.33;;;30.02;;
19776;SDS011;10047;42.490;26.012;2024-02-23T04:12:01;48.63;;;29.95;;
19776;SDS011;10047;42.490;26.012;2024-02-23T04:14:27;52.78;;;31.58;;
19776;SDS011;10047;42.490;26.012;2024-02-23T04:16:52;44.45;;;29.55;;
19776;SDS011;10047;42.490;26.012;2024-02-23T04:19:17;46.97;;;30.58;;
19776;SDS011;10047;42.490;26.012;2024-02-23T04:21:43;45.42;;;30.27;;
19776;SDS011;10047;42.490;26.012;2024-02-23T04:24:09;46.53;;;30.17;;
19776;SDS011;10047;42.490;26.012;2024-02-23T04:26:34;47.35;;;30.13;;
19776;SDS011;10047;42.490;26.012;2024-02-23T04:29:00;46.15;;;30.88;;
19776;SDS011;10047;42.490;26.012;2024-02-23T04:31:25;49.30;;;31.77;;
19776;SDS011;10047;42.490;26.012;2024-02-23T04:33:51;45.40;;;29.55;;
19776;SDS011;10047;42.490;26.012;2024-02-23T04:36:19;42.28;;;28.50;;
19776;SDS011;10047;42.490;26.012;2024-02-23T04:38:46;40.53;;;28.38;;
19776;SDS011;10047;42.490;26.012;2024-02-23T04:41:11;41.83;;;28.27;;
19776;SDS011;10047;42.490;26.012;2024-02-23T04:43:36;43.10;;;28.40;;
19776;SDS011;10047;42.490;26.012;2024-02-23T04:46:08;42.92;;;28.40;;
19776;SDS011;10047;42.490;26.012;2024-02-23T04:48:33;41.75;;;28.05;;
19776;SDS011;10047;42.490;26.012;2024-02-23T04:51:01;40.70;;;27.60;;
19776;SDS011;10047;42.490;26.012;2024-02-23T04:53:26;42.20;;;28.67;;
19776;SDS011;10047;42.490;26.012;2024-02-23T04:55:52;40.55;;;27.05;;
19776;SDS011;10047;42.490;26.012;2024-02-23T04:58:17;43.58;;;28.67;;
19776;SDS011;10047;42.490;26.012;2024-02-23T05:00:42;45.13;;;28.55;;
19776;SDS011;10047;42.490;26.012;2024-02-23T05:03:08;44.20;;;29.10;;
19776;SDS011;10047;42.490;26.012;2024-02-23T05:05:35;41.95;;;27.83;;
19776;SDS011;10047;42.490;26.012;2024-02-23T05:08:00;43.83;;;29.45;;
19776;SDS011;10047;42.490;26.012;2024-02-23T05:10:25;41.13;;;28.20;;
19776;SDS011;10047;42.490;26.012;2024-02-23T05:12:53;42.20;;;28.60;;
19776;SDS011;10047;42.490;26.012;2024-02-23T05:15:18;48.83;;;30.35;;
19776;SDS011;10047;42.490;26.012;2024-02-23T05:17:44;40.88;;;28.50;;
19776;SDS011;10047;42.490;26.012;2024-02-23T05:20:09;42.92;;;29.00;;
19776;SDS011;10047;42.490;26.012;2024-02-23T05:22:36;41.47;;;29.15;;
19776;SDS011;10047;42.490;26.012;2024-02-23T05:25:02;46.47;;;29.65;;
19776;SDS011;10047;42.490;26.012;2024-02-23T05:27:28;41.97;;;29.70;;
19776;SDS011;10047;42.490;26.012;2024-02-23T05:29:53;41.10;;;29.15;;
19776;SDS011;10047;42.490;26.012;2024-02-23T05:32:19;40.90;;;26.33;;
19776;SDS011;10047;42.490;26.012;2024-02-23T05:34:45;41.53;;;25.75;;
19776;SDS011;10047;42.490;26.012;2024-02-23T05:37:11;44.63;;;27.65;;
19776;SDS011;10047;42.490;26.012;2024-02-23T05:39:36;37.42;;;26.35;;
19776;SDS011;10047;42.490;26.012;2024-02-23T05:42:03;91.03;;;27.75;;
19776;SDS011;10047;42.490;26.012;2024-02-23T05:44:29;43.13;;;28.00;;
19776;SDS011;10047;42.490;26.012;2024-02-23T05:46:54;37.67;;;23.30;;
19776;SDS011;10047;42.490;26.012;2024-02-23T05:49:20;52.97;;;32.13;;
19776;SDS011;10047;42.490;26.012;2024-02-23T05:51:45;40.67;;;27.85;;
19776;SDS011;10047;42.490;26.012;2024-02-23T05:54:10;113.95;;;30.30;;
19776;SDS011;10047;42.490;26.012;2024-02-23T05:56:36;98.47;;;29.33;;
19776;SDS011;10047;42.490;26.012;2024-02-23T05:59:03;120.50;;;28.85;;
19776;SDS011;10047;42.490;26.012;2024-02-23T06:01:28;199.93;;;28.17;;
19776;SDS011;10047;42.490;26.012;2024-02-23T06:03:54;189.60;;;32.35;;
19776;SDS011;10047;42.490;26.012;2024-02-23T06:06:20;175.52;;;30.77;;
19776;SDS011;10047;42.490;26.012;2024-02-23T06:08:45;132.30;;;30.42;;
19776;SDS011;10047;42.490;26.012;2024-02-23T06:11:11;119.63;;;31.77;;
19776;SDS011;10047;42.490;26.012;2024-02-23T06:13:37;107.72;;;33.53;;
19776;SDS011;10047;42.490;26.012;2024-02-23T06:16:04;60.25;;;29.08;;
19776;SDS011;10047;42.490;26.012;2024-02-23T06:18:30;124.60;;;31.27;;
19776;SDS011;10047;42.490;26.012;2024-02-23T06:20:56;104.05;;;31.95;;
19776;SDS011;10047;42.490;26.012;2024-02-23T06:23:21;94.35;;;28.98;;
19776;SDS011;10047;42.490;26.012;2024-02-23T06:25:47;53.13;;;25.35;;
19776;SDS011;10047;42.490;26.012;2024-02-23T06:28:12;78.47;;;28.55;;
19776;SDS011;10047;42.490;26.012;2024-02-23T06:30:38;40.63;;;25.70;;
19776;SDS011;10047;42.490;26.012;2024-02-23T06:33:03;44.72;;;27.00;;
19776;SDS011;10047;42.490;26.012;2024-02-23T06:35:31;33.17;;;25.58;;
19776;SDS011;10047;42.490;26.012;2024-02-23T06:37:57;31.90;;;24.48;;
19776;SDS011;10047;42.490;26.012;2024-02-23T06:40:22;32.72;;;24.77;;
19776;SDS011;10047;42.490;26.012;2024-02-23T06:42:48;31.20;;;23.10;;
19776;SDS011;10047;42.490;26.012;2024-02-23T06:45:13;35.45;;;24.73;;
19776;SDS011;10047;42.490;26.012;2024-02-23T06:47:39;35.83;;;26.67;;
19776;SDS011;10047;42.490;26.012;2024-02-23T06:50:05;37.60;;;28.67;;
19776;SDS011;10047;42.490;26.012;2024-02-23T06:52:31;37.83;;;28.70;;
19776;SDS011;10047;42.490;26.012;2024-02-23T06:54:58;32.55;;;25.00;;
19776;SDS011;10047;42.490;26.012;2024-02-23T06:57:23;37.03;;;25.75;;
19776;SDS011;10047;42.490;26.012;2024-02-23T06:59:50;34.03;;;25.67;;
19776;SDS011;10047;42.490;26.012;2024-02-23T07:02:17;35.55;;;26.70;;
19776;SDS011;10047;42.490;26.012;2024-02-23T07:04:43;32.45;;;25.58;;
19776;SDS011;10047;42.490;26.012;2024-02-23T07:07:08;32.53;;;24.55;;
19776;SDS011;10047;42.490;26.012;2024-02-23T07:09:34;30.08;;;24.88;;
19776;SDS011;10047;42.490;26.012;2024-02-23T07:12:00;32.65;;;25.70;;
19776;SDS011;10047;42.490;26.012;2024-02-23T07:14:25;35.85;;;25.00;;
19776;SDS011;10047;42.490;26.012;2024-02-23T07:16:51;32.65;;;25.00;;
19776;SDS011;10047;42.490;26.012;2024-02-23T07:19:19;31.23;;;24.52;;
19776;SDS011;10047;42.490;26.012;2024-02-23T07:21:48;30.95;;;24.58;;
19776;SDS011;10047;42.490;26.012;2024-02-23T07:24:13;30.67;;;24.60;;
19776;SDS011;10047;42.490;26.012;2024-02-23T07:26:38;34.53;;;25.92;;
19776;SDS011;10047;42.490;26.012;2024-02-23T07:29:04;33.80;;;25.42;;
19776;SDS011;10047;42.490;26.012;2024-02-23T07:31:29;33.85;;;25.40;;
19776;SDS011;10047;42.490;26.012;2024-02-23T07:33:55;30.70;;;25.00;;
19776;SDS011;10047;42.490;26.012;2024-02-23T07:36:20;31.67;;;24.85;;
19776;SDS011;10047;42.490;26.012;2024-02-23T07:38:46;32.03;;;24.75;;
19776;SDS011;10047;42.490;26.012;2024-02-23T07:41:12;31.40;;;24.90;;
19776;SDS011;10047;42.490;26.012;2024-02-23T07:43:42;36.50;;;27.35;;
19776;SDS011;10047;42.490;26.012;2024-02-23T07:46:08;37.50;;;29.38;;
19776;SDS011;10047;42.490;26.012;2024-02-23T07:48:34;33.53;;;27.38;;
19776;SDS011;10047;42.490;26.012;2024-02-23T07:51:00;31.65;;;26.02;;
19776;SDS011;10047;42.490;26.012;2024-02-23T07:53:27;32.83;;;26.80;;
19776;SDS011;10047;42.490;26.012;2024-02-23T07:55:52;33.70;;;27.48;;
19776;SDS011;10047;42.490;26.012;2024-02-23T07:58:18;33.25;;;25.60;;
19776;SDS011;10047;42.490;26.012;2024-02-23T08:00:44;31.17;;;25.83;;
19776;SDS011;10047;42.490;26.012;2024-02-23T08:03:09;34.60;;;27.30;;
19776;SDS011;10047;42.490;26.012;2024-02-23T08:05:35;32.63;;;26.23;;
19776;SDS011;10047;42.490;26.012;2024-02-23T08:08:01;31.85;;;25.02;;
19776;SDS011;10047;42.490;26.012;2024-02-23T08:10:27;26.08;;;21.20;;
19776;SDS011;10047;42.490;26.012;2024-02-23T08:12:53;29.35;;;24.67;;
19776;SDS011;10047;42.490;26.012;2024-02-23T08:15:18;27.88;;;22.80;;
19776;SDS011;10047;42.490;26.012;2024-02-23T08:17:44;27.10;;;22.45;;
19776;SDS011;10047;42.490;26.012;2024-02-23T08:20:09;26.55;;;21.10;;
19776;SDS011;10047;42.490;26.012;2024-02-23T08:22:35;27.40;;;21.65;;
19776;SDS011;10047;42.490;26.012;2024-02-23T08:25:00;27.15;;;20.40;;
19776;SDS011;10047;42.490;26.012;2024-02-23T08:27:26;25.25;;;19.63;;
19776;SDS011;10047;42.490;26.012;2024-02-23T08:29:52;24.42;;;20.38;;
19776;SDS011;10047;42.490;26.012;2024-02-23T08:32:17;22.88;;;19.15;;
19776;SDS011;10047;42.490;26.012;2024-02-23T08:34:43;24.15;;;19.42;;
19776;SDS011;10047;42.490;26.012;2024-02-23T08:37:09;22.95;;;18.95;;
19776;SDS011;10047;42.490;26.012;2024-02-23T08:39:34;28.92;;;21.13;;
19776;SDS011;10047;42.490;26.012;2024-02-23T08:42:02;24.35;;;18.35;;
19776;SDS011;10047;42.490;26.012;2024-02-23T08:44:28;23.23;;;18.17;;
19776;SDS011;10047;42.490;26.012;2024-02-23T08:46:53;23.20;;;17.60;;
19776;SDS011;10047;42.490;26.012;2024-02-23T08:49:19;23.50;;;18.20;;
19776;SDS011;10047;42.490;26.012;2024-02-23T08:51:44;21.95;;;17.70;;
19776;SDS011;10047;42.490;26.012;2024-02-23T08:54:10;20.88;;;17.67;;
19776;SDS011;10047;42.490;26.012;2024-02-23T08:56:38;20.20;;;17.13;;
19776;SDS011;10047;42.490;26.012;2024-02-23T08:59:07;21.65;;;17.33;;
19776;SDS011;10047;42.490;26.012;2024-02-23T09:01:32;20.13;;;16.65;;
19776;SDS011;10047;42.490;26.012;2024-02-23T09:03:58;21.55;;;17.33;;
19776;SDS011;10047;42.490;26.012;2024-02-23T09:06:23;21.30;;;17.50;;
19776;SDS011;10047;42.490;26.012;2024-02-23T09:08:48;21.05;;;17.17;;
19776;SDS011;10047;42.490;26.012;2024-02-23T09:11:14;24.92;;;18.83;;
19776;SDS011;10047;42.490;26.012;2024-02-23T09:13:40;20.63;;;16.65;;
19776;SDS011;10047;42.490;26.012;2024-02-23T09:16:07;22.48;;;17.52;;
19776;SDS011;10047;42.490;26.012;2024-02-23T09:18:33;22.63;;;18.65;;
19776;SDS011;10047;42.490;26.012;2024-02-23T09:20:59;21.30;;;17.55;;
19776;SDS011;10047;42.490;26.012;2024-02-23T09:23:25;21.00;;;16.85;;
19776;SDS011;10047;42.490;26.012;2024-02-23T09:25:50;19.55;;;15.98;;
19776;SDS011;10047;42.490;26.012;2024-02-23T09:28:15;23.20;;;18.10;;
19776;SDS011;10047;42.490;26.012;2024-02-23T09:30:41;19.90;;;17.50;;
19776;SDS011;10047;42.490;26.012;2024-02-23T09:33:06;21.48;;;17.58;;
19776;SDS011;10047;42.490;26.012;2024-02-23T09:35:33;20.92;;;16.58;;
19776;SDS011;10047;42.490;26.012;2024-02-23T09:37:58;20.10;;;15.23;;
19776;SDS011;10047;42.490;26.012;2024-02-23T09:40:24;20.50;;;15.20;;
19776;SDS011;10047;42.490;26.012;2024-02-23T09:42:55;22.33;;;17.25;;
19776;SDS011;10047;42.490;26.012;2024-02-23T09:45:22;19.75;;;15.93;;
19776;SDS011;10047;42.490;26.012;2024-02-23T09:47:49;20.85;;;17.23;;
19776;SDS011;10047;42.490;26.012;2024-02-23T09:50:15;23.10;;;16.13;;
19776;SDS011;10047;42.490;26.012;2024-02-23T09:52:42;21.02;;;16.40;;
19776;SDS011;10047;42.490;26.012;2024-02-23T09:55:08;20.02;;;16.45;;
19776;SDS011;10047;42.490;26.012;2024-02-23T09:57:35;22.98;;;15.25;;
19776;SDS011;10047;42.490;26.012;2024-02-23T10:00:01;19.05;;;15.13;;
19776;SDS011;10047;42.490;26.012;2024-02-23T10:02:31;18.60;;;16.17;;
19776;SDS011;10047;42.490;26.012;2024-02-23T10:04:57;20.80;;;16.75;;
19776;SDS011;10047;42.490;26.012;2024-02-23T10:07:24;19.77;;;15.95;;
19776;SDS011;10047;42.490;26.012;2024-02-23T10:09:50;20.38;;;16.63;;
19776;SDS011;10047;42.490;26.012;2024-02-23T10:12:15;18.25;;;15.77;;
19776;SDS011;10047;42.490;26.012;2024-02-23T10:14:41;18.98;;;15.18;;
19776;SDS011;10047;42.490;26.012;2024-02-23T10:17:07;22.95;;;15.68;;
19776;SDS011;10047;42.490;26.012;2024-02-23T10:19:33;21.52;;;15.52;;
19776;SDS011;10047;42.490;26.012;2024-02-23T10:21:59;17.20;;;15.13;;
19776;SDS011;10047;42.490;26.012;2024-02-23T10:24:24;16.17;;;14.40;;
19776;SDS011;10047;42.490;26.012;2024-02-23T10:26:51;14.05;;;12.07;;
19776;SDS011;10047;42.490;26.012;2024-02-23T10:29:17;17.73;;;15.02;;
19776;SDS011;10047;42.490;26.012;2024-02-23T10:31:42;12.93;;;11.30;;
19776;SDS011;10047;42.490;26.012;2024-02-23T10:34:12;12.30;;;11.02;;
19776;SDS011;10047;42.490;26.012;2024-02-23T10:36:43;12.80;;;11.50;;
19776;SDS011;10047;42.490;26.012;2024-02-23T10:39:10;12.15;;;10.65;;
19776;SDS011;10047;42.490;26.012;2024-02-23T10:41:36;13.82;;;11.30;;
19776;SDS011;10047;42.490;26.012;2024-02-23T10:44:04;13.23;;;10.70;;
19776;SDS011;10047;42.490;26.012;2024-02-23T10:46:31;12.95;;;11.30;;
19776;SDS011;10047;42.490;26.012;2024-02-23T10:48:58;13.75;;;11.38;;
19776;SDS011;10047;42.490;26.012;2024-02-23T10:51:26;14.75;;;11.38;;
19776;SDS011;10047;42.490;26.012;2024-02-23T10:53:52;17.85;;;12.25;;
19776;SDS011;10047;42.490;26.012;2024-02-23T10:56:18;16.83;;;11.30;;
19776;SDS011;10047;42.490;26.012;2024-02-23T10:58:44;14.63;;;10.52;;
19776;SDS011;10047;42.490;26.012;2024-02-23T11:01:10;11.48;;;10.15;;
19776;SDS011;10047;42.490;26.012;2024-02-23T11:03:37;11.77;;;10.52;;
19776;SDS011;10047;42.490;26.012;2024-02-23T11:06:06;17.52;;;10.60;;
19776;SDS011;10047;42.490;26.012;2024-02-23T11:08:32;12.98;;;11.50;;
19776;SDS011;10047;42.490;26.012;2024-02-23T11:11:06;12.05;;;8.70;;
19776;SDS011;10047;42.490;26.012;2024-02-23T11:13:36;10.38;;;9.35;;
19776;SDS011;10047;42.490;26.012;2024-02-23T11:16:03;12.75;;;11.45;;
19776;SDS011;10047;42.490;26.012;2024-02-23T11:18:30;10.63;;;8.48;;
19776;SDS011;10047;42.490;26.012;2024-02-23T11:20:59;11.07;;;9.45;;
19776;SDS011;10047;42.490;26.012;2024-02-23T11:23:26;9.90;;;8.90;;
19776;SDS011;10047;42.490;26.012;2024-02-23T11:25:58;8.90;;;8.00;;
19776;SDS011;10047;42.490;26.012;2024-02-23T11:28:29;11.23;;;8.95;;
19776;SDS011;10047;42.490;26.012;2024-02-23T11:30:54;9.13;;;8.23;;
19776;SDS011;10047;42.490;26.012;2024-02-23T11:33:26;8.90;;;7.88;;
19776;SDS011;10047;42.490;26.012;2024-02-23T11:35:52;9.23;;;8.30;;
19776;SDS011;10047;42.490;26.012;2024-02-23T11:38:18;11.65;;;9.38;;
19776;SDS011;10047;42.490;26.012;2024-02-23T11:40:49;10.35;;;9.15;;
19776;SDS011;10047;42.490;26.012;2024-02-23T11:43:17;10.50;;;8.65;;
19776;SDS011;10047;42.490;26.012;2024-02-23T11:45:46;9.32;;;8.35;;
19776;SDS011;10047;42.490;26.012;2024-02-23T11:48:12;10.38;;;8.10;;
19776;SDS011;10047;42.490;26.012;2024-02-23T11:50:37;8.57;;;7.68;;
19776;SDS011;10047;42.490;26.012;2024-02-23T11:53:02;8.07;;;7.25;;
19776;SDS011;10047;42.490;26.012;2024-02-23T11:55:29;8.82;;;7.93;;
19776;SDS011;10047;42.490;26.012;2024-02-23T11:57:54;8.38;;;6.70;;
19776;SDS011;10047;42.490;26.012;2024-02-23T12:00:20;7.63;;;6.70;;
19776;SDS011;10047;42.490;26.012;2024-02-23T12:02:46;12.30;;;7.75;;
19776;SDS011;10047;42.490;26.012;2024-02-23T12:05:15;9.65;;;8.13;;
19776;SDS011;10047;42.490;26.012;2024-02-23T12:07:41;11.05;;;7.50;;
19776;SDS011;10047;42.490;26.012;2024-02-23T12:10:07;8.48;;;7.20;;
19776;SDS011;10047;42.490;26.012;2024-02-23T12:12:33;7.93;;;7.07;;
19776;SDS011;10047;42.490;26.012;2024-02-23T12:14:59;8.52;;;6.80;;
19776;SDS011;10047;42.490;26.012;2024-02-23T12:17:24;7.60;;;6.55;;
19776;SDS011;10047;42.490;26.012;2024-02-23T12:19:57;8.02;;;6.32;;
19776;SDS011;10047;42.490;26.012;2024-02-23T12:22:24;7.50;;;5.90;;
19776;SDS011;10047;42.490;26.012;2024-02-23T12:24:50;6.82;;;6.13;;
19776;SDS011;10047;42.490;26.012;2024-02-23T12:27:19;6.70;;;6.03;;
19776;SDS011;10047;42.490;26.012;2024-02-23T12:29:52;7.72;;;6.38;;
19776;SDS011;10047;42.490;26.012;2024-02-23T12:32:19;6.82;;;6.13;;
19776;SDS011;10047;42.490;26.012;2024-02-23T12:34:45;6.80;;;6.13;;
19776;SDS011;10047;42.490;26.012;2024-02-23T12:37:14;12.30;;;11.10;;
19776;SDS011;10047;42.490;26.012;2024-02-23T12:39:40;7.75;;;6.88;;
19776;SDS011;10047;42.490;26.012;2024-02-23T12:42:07;7.18;;;6.47;;
19776;SDS011;10047;42.490;26.012;2024-02-23T12:44:32;11.13;;;9.00;;
19776;SDS011;10047;42.490;26.012;2024-02-23T12:46:58;6.88;;;6.22;;
19776;SDS011;10047;42.490;26.012;2024-02-23T12:49:23;8.75;;;7.88;;
19776;SDS011;10047;42.490;26.012;2024-02-23T12:51:49;7.32;;;5.93;;
19776;SDS011;10047;42.490;26.012;2024-02-23T12:54:14;7.40;;;6.70;;
19776;SDS011;10047;42.490;26.012;2024-02-23T12:56:40;7.28;;;6.22;;
19776;SDS011;10047;42.490;26.012;2024-02-23T12:59:05;8.02;;;7.30;;
19776;SDS011;10047;42.490;26.012;2024-02-23T13:01:31;9.07;;;7.72;;
19776;SDS011;10047;42.490;26.012;2024-02-23T13:04:03;8.68;;;7.80;;
19776;SDS011;10047;42.490;26.012;2024-02-23T13:06:34;7.20;;;6.50;;
19776;SDS011;10047;42.490;26.012;2024-02-23T13:09:03;6.95;;;6.25;;
19776;SDS011;10047;42.490;26.012;2024-02-23T13:11:30;7.03;;;6.30;;
19776;SDS011;10047;42.490;26.012;2024-02-23T13:13:56;7.07;;;6.38;;
19776;SDS011;10047;42.490;26.012;2024-02-23T13:16:21;7.50;;;6.68;;
19776;SDS011;10047;42.490;26.012;2024-02-23T13:18:47;6.80;;;6.10;;
19776;SDS011;10047;42.490;26.012;2024-02-23T13:21:13;6.57;;;5.90;;
19776;SDS011;10047;42.490;26.012;2024-02-23T13:23:39;7.68;;;6.00;;
19776;SDS011;10047;42.490;26.012;2024-02-23T13:26:04;7.22;;;6.40;;
19776;SDS011;10047;42.490;26.012;2024-02-23T13:28:30;9.80;;;8.80;;
19776;SDS011;10047;42.490;26.012;2024-02-23T13:30:55;7.88;;;7.07;;
19776;SDS011;10047;42.490;26.012;2024-02-23T13:33:21;9.77;;;8.00;;
19776;SDS011;10047;42.490;26.012;2024-02-23T13:35:47;9.05;;;7.97;;
19776;SDS011;10047;42.490;26.012;2024-02-23T13:38:13;11.00;;;9.35;;
19776;SDS011;10047;42.490;26.012;2024-02-23T13:40:38;8.85;;;7.95;;
19776;SDS011;10047;42.490;26.012;2024-02-23T13:43:03;6.75;;;6.05;;
19776;SDS011;10047;42.490;26.012;2024-02-23T13:45:29;7.35;;;5.97;;
19776;SDS011;10047;42.490;26.012;2024-02-23T13:47:56;7.03;;;6.20;;
19776;SDS011;10047;42.490;26.012;2024-02-23T13:50:23;8.40;;;6.47;;
19776;SDS011;10047;42.490;26.012;2024-02-23T13:52:48;7.10;;;6.45;;
19776;SDS011;10047;42.490;26.012;2024-02-23T13:55:14;6.57;;;5.97;;
19776;SDS011;10047;42.490;26.012;2024-02-23T13:57:40;6.85;;;6.15;;
19776;SDS011;10047;42.490;26.012;2024-02-23T14:00:06;10.75;;;9.65;;
19776;SDS011;10047;42.490;26.012;2024-02-23T14:02:37;8.65;;;5.90;;
19776;SDS011;10047;42.490;26.012;2024-02-23T14:05:05;9.15;;;7.88;;
19776;SDS011;10047;42.490;26.012;2024-02-23T14:07:32;11.93;;;9.30;;
19776;SDS011;10047;42.490;26.012;2024-02-23T14:09:58;8.50;;;7.60;;